Terminal Aerodrome Forecast
Issued by NWS

Home | Current Version | Previous Version | Text Only | Print | Product List | Glossary Off
Versions: 1 2 3 4 5 6 7 8 9 10 11 12 13 14 15 16

000
FTUS43 KMPX 242245 AAA
TAFAXN
TAF AMD
KAXN 242245Z 2423/2518 12014KT 2SM -RA BR OVC008
     FM250000 11013KT 3SM BR OVC008
     FM250500 09010KT 2SM BR OVC005
     FM251200 08010KT 4SM BR OVC010=

USA.gov is the U.S. government's official web portal to all federal, state and local government web resources and services.